createdAt,value
2019-03-09T00:01:31.388Z,5.50
2019-03-09T00:04:01.299Z,5.20
2019-03-09T00:06:30.840Z,5.20
2019-03-09T00:09:00.288Z,5.47
2019-03-09T00:11:29.869Z,5.17
2019-03-09T00:13:59.303Z,4.85
2019-03-09T00:16:28.795Z,4.58
2019-03-09T00:18:58.352Z,4.53
2019-03-09T00:21:27.770Z,4.35
2019-03-09T00:24:14.776Z,4.50
2019-03-09T00:27:03.392Z,4.43
2019-03-09T00:29:54.859Z,4.12
2019-03-09T00:32:26.291Z,4.13
2019-03-09T00:34:55.770Z,3.83
2019-03-09T00:37:25.326Z,4.28
2019-03-09T00:39:54.801Z,3.70
2019-03-09T00:42:24.227Z,3.90
2019-03-09T00:44:53.971Z,4.05
2019-03-09T00:47:23.506Z,4.40
2019-03-09T00:49:53.061Z,3.85
2019-03-09T00:52:22.608Z,3.72
2019-03-09T00:54:52.134Z,3.75
2019-03-09T00:57:22.057Z,3.87
2019-03-09T00:59:56.622Z,3.90
2019-03-09T01:02:26.376Z,3.90
2019-03-09T01:04:55.893Z,3.72
2019-03-09T01:07:25.565Z,4.00
2019-03-09T01:09:55.002Z,4.20
2019-03-09T01:12:24.605Z,3.80
2019-03-09T01:14:54.043Z,4.20
2019-03-09T01:17:23.557Z,3.72
2019-03-09T01:19:53.095Z,4.55
2019-03-09T01:22:22.554Z,4.40
2019-03-09T01:24:52.088Z,4.47
2019-03-09T01:27:21.530Z,4.90
2019-03-09T01:29:51.130Z,4.45
2019-03-09T01:32:20.695Z,4.60
2019-03-09T01:34:50.053Z,4.17
2019-03-09T01:37:19.499Z,4.33
2019-03-09T01:39:48.923Z,4.45
2019-03-09T01:42:18.364Z,4.03
2019-03-09T01:44:47.931Z,4.47
2019-03-09T01:47:17.350Z,4.35
2019-03-09T01:49:47.116Z,4.10
2019-03-09T01:52:16.613Z,4.12
2019-03-09T01:54:46.061Z,3.70
2019-03-09T01:57:15.601Z,4.53
2019-03-09T01:59:45.224Z,4.12
2019-03-09T02:02:14.657Z,3.80
2019-03-09T02:04:44.082Z,4.20
2019-03-09T02:07:13.577Z,3.70
2019-03-09T02:09:42.972Z,3.72
2019-03-09T02:12:12.388Z,3.60
2019-03-09T02:14:41.839Z,3.50
2019-03-09T02:17:11.347Z,3.70
2019-03-09T02:19:40.880Z,3.77
2019-03-09T02:22:14.472Z,3.10
2019-03-09T02:24:44.145Z,3.70
2019-03-09T02:27:13.589Z,3.57
2019-03-09T02:29:43.150Z,3.55
2019-03-09T02:32:12.974Z,3.80
2019-03-09T02:34:42.604Z,3.83
2019-03-09T02:37:12.209Z,3.90
2019-03-09T02:39:59.226Z,3.60
2019-03-09T02:42:28.878Z,3.80
2019-03-09T02:44:58.473Z,3.55
2019-03-09T02:47:28.029Z,3.40
2019-03-09T02:49:57.572Z,3.92
2019-03-09T02:52:27.068Z,4.00
2019-03-09T02:54:56.525Z,3.72
2019-03-09T02:57:26.179Z,3.83
2019-03-09T02:59:55.864Z,3.72
2019-03-09T03:02:59.824Z,4.10
2019-03-09T03:05:29.428Z,3.50
2019-03-09T03:07:59.112Z,3.80
2019-03-09T03:10:28.612Z,3.80
2019-03-09T03:12:58.166Z,3.67
2019-03-09T03:15:32.815Z,3.50
2019-03-09T03:18:02.436Z,3.60
2019-03-09T03:20:31.920Z,3.52
2019-03-09T03:23:01.460Z,3.63
2019-03-09T03:25:30.970Z,3.50
2019-03-09T03:28:00.357Z,3.55
2019-03-09T03:30:29.883Z,3.40
2019-03-09T03:32:59.593Z,3.45
2019-03-09T03:35:29.065Z,3.50
2019-03-09T03:37:58.561Z,3.47
2019-03-09T03:40:28.288Z,3.30
2019-03-09T03:42:57.815Z,3.02
2019-03-09T03:45:27.271Z,3.15
2019-03-09T03:47:56.869Z,3.37
2019-03-09T03:50:26.326Z,3.10
2019-03-09T03:52:55.913Z,3.10
2019-03-09T03:55:25.471Z,3.33
2019-03-09T03:57:55.071Z,3.05
2019-03-09T04:00:24.504Z,3.20
2019-03-09T04:02:54.538Z,3.10
2019-03-09T04:05:23.963Z,2.98
2019-03-09T04:07:53.439Z,3.67
2019-03-09T04:10:22.982Z,3.33
2019-03-09T04:12:52.888Z,3.60
2019-03-09T04:15:22.376Z,3.70
2019-03-09T04:17:51.787Z,3.55
2019-03-09T04:20:21.192Z,3.70
2019-03-09T04:22:50.617Z,3.77
2019-03-09T04:25:20.067Z,3.95
2019-03-09T04:27:49.607Z,4.35
2019-03-09T04:30:19.258Z,4.37
2019-03-09T04:32:48.818Z,4.08
2019-03-09T04:35:18.181Z,4.70
2019-03-09T04:37:47.664Z,4.00
2019-03-09T04:40:17.144Z,4.80
2019-03-09T04:42:46.603Z,4.17
2019-03-09T04:45:15.987Z,4.87
2019-03-09T04:47:45.387Z,4.87
2019-03-09T04:50:14.872Z,4.70
2019-03-09T04:52:44.282Z,4.80
2019-03-09T04:55:13.692Z,4.97
2019-03-09T04:57:43.105Z,5.30
2019-03-09T05:00:13.259Z,5.20
2019-03-09T05:02:42.708Z,5.22
2019-03-09T05:05:12.293Z,5.12
2019-03-09T05:08:34.654Z,5.60
2019-03-09T05:11:08.301Z,5.28
2019-03-09T05:13:44.212Z,5.25
2019-03-09T05:16:13.624Z,5.83
2019-03-09T05:18:43.019Z,5.42
2019-03-09T05:21:12.469Z,5.10
2019-03-09T05:23:41.843Z,4.90
2019-03-09T05:26:11.312Z,5.22
2019-03-09T05:28:40.807Z,4.90
2019-03-09T05:31:10.252Z,5.45
2019-03-09T05:33:39.698Z,5.67
2019-03-09T05:36:09.083Z,5.20
2019-03-09T05:38:38.510Z,5.00
2019-03-09T05:41:07.980Z,4.70
2019-03-09T05:43:37.358Z,5.50
2019-03-09T05:46:06.769Z,4.80
2019-03-09T05:48:36.220Z,5.15
2019-03-09T05:51:05.711Z,5.30
2019-03-09T05:53:35.106Z,5.30
2019-03-09T05:56:04.519Z,5.30
2019-03-09T05:58:33.969Z,5.87
2019-03-09T06:01:03.426Z,5.65
2019-03-09T06:03:32.913Z,5.90
2019-03-09T06:06:10.424Z,6.20
2019-03-09T06:08:40.073Z,6.30
2019-03-09T06:11:09.454Z,6.60
2019-03-09T06:13:38.932Z,6.50
2019-03-09T06:16:08.400Z,6.60
2019-03-09T06:18:37.813Z,6.60
2019-03-09T06:21:07.197Z,7.08
2019-03-09T06:23:36.614Z,6.50
2019-03-09T06:26:06.012Z,7.08
2019-03-09T06:28:35.387Z,6.67
2019-03-09T06:31:04.769Z,6.77
2019-03-09T06:33:38.106Z,6.72
2019-03-09T06:36:43.746Z,6.55
2019-03-09T06:39:18.463Z,6.20
2019-03-09T06:42:43.931Z,7.22
2019-03-09T06:45:15.078Z,6.60
2019-03-09T06:47:44.527Z,7.10
2019-03-09T06:50:16.091Z,6.92
2019-03-09T06:52:45.496Z,7.10
2019-03-09T06:55:15.061Z,7.05
2019-03-09T06:57:44.465Z,6.70
2019-03-09T07:00:45.026Z,7.30
2019-03-09T07:03:14.437Z,6.97
2019-03-09T07:05:43.876Z,6.53
2019-03-09T07:08:13.376Z,6.95
2019-03-09T07:10:42.876Z,6.90
2019-03-09T07:13:12.254Z,6.22
2019-03-09T07:15:45.648Z,6.60
2019-03-09T07:18:20.021Z,5.97
2019-03-09T07:20:49.472Z,5.40
2019-03-09T07:23:18.878Z,6.47
2019-03-09T07:25:48.296Z,6.03
2019-03-09T07:28:17.967Z,5.62
2019-03-09T07:30:47.407Z,5.10
2019-03-09T07:33:16.886Z,4.87
2019-03-09T07:35:46.378Z,4.40
2019-03-09T07:38:15.829Z,4.50
2019-03-09T07:40:45.280Z,4.00
2019-03-09T07:43:14.683Z,4.37
2019-03-09T07:45:44.171Z,3.50
2019-03-09T07:48:13.663Z,4.92
2019-03-09T07:50:43.124Z,3.90
2019-03-09T07:53:12.622Z,3.58
2019-03-09T07:55:42.035Z,3.37
2019-03-09T07:58:11.645Z,3.53
2019-03-09T08:00:41.077Z,4.00
2019-03-09T08:03:10.518Z,3.95
2019-03-09T08:05:39.909Z,3.60
2019-03-09T08:08:13.936Z,3.50
2019-03-09T08:10:40.876Z,3.90
2019-03-09T08:13:10.750Z,3.58
2019-03-09T08:15:40.410Z,3.93
2019-03-09T08:21:17.327Z,4.05
2019-03-09T08:23:48.398Z,3.95
2019-03-09T08:26:17.942Z,3.80
2019-03-09T08:28:47.533Z,3.83
2019-03-09T08:31:17.016Z,3.60
2019-03-09T08:33:46.541Z,4.05
2019-03-09T08:36:16.041Z,3.92
2019-03-09T08:38:45.572Z,4.65
2019-03-09T08:41:15.019Z,5.50
2019-03-09T08:43:44.584Z,4.45
2019-03-09T08:46:14.024Z,4.08
2019-03-09T08:48:43.594Z,4.83
2019-03-09T08:51:13.007Z,3.90
2019-03-09T08:53:43.232Z,4.10
2019-03-09T08:56:12.706Z,4.40
2019-03-09T08:58:42.172Z,4.15
2019-03-09T09:01:11.685Z,4.40
2019-03-09T09:03:41.191Z,4.80
2019-03-09T09:06:10.677Z,4.20
2019-03-09T09:08:58.603Z,5.03
2019-03-09T09:11:28.039Z,4.35
2019-03-09T09:13:57.527Z,4.60
2019-03-09T09:16:26.936Z,4.72
2019-03-09T09:18:56.430Z,4.83
2019-03-09T09:21:25.976Z,4.75
2019-03-09T09:23:57.893Z,5.05
2019-03-09T09:26:27.595Z,4.80
2019-03-09T09:28:57.137Z,5.30
2019-03-09T09:31:26.708Z,4.58
2019-03-09T09:33:58.388Z,4.60
2019-03-09T09:36:27.494Z,4.78
2019-03-09T09:38:56.925Z,4.93
2019-03-09T09:41:26.347Z,4.70
2019-03-09T09:43:55.805Z,5.12
2019-03-09T09:46:28.531Z,4.92
2019-03-09T09:48:58.033Z,5.00
2019-03-09T09:51:27.454Z,4.47
2019-03-09T09:53:56.871Z,4.25
2019-03-09T09:56:26.320Z,5.15
2019-03-09T09:58:55.818Z,4.30
2019-03-09T10:01:25.198Z,4.30
2019-03-09T10:03:54.719Z,4.78
2019-03-09T10:06:24.183Z,4.33
2019-03-09T10:08:53.633Z,4.80
2019-03-09T10:11:23.047Z,4.73
2019-03-09T10:13:52.448Z,4.62
2019-03-09T10:16:21.895Z,4.47
2019-03-09T10:18:51.388Z,5.33
2019-03-09T10:21:20.784Z,4.90
2019-03-09T10:23:50.262Z,5.62
2019-03-09T10:26:19.745Z,5.03
2019-03-09T10:28:49.161Z,5.53
2019-03-09T10:31:18.597Z,5.60
2019-03-09T10:33:47.994Z,5.15
2019-03-09T10:36:17.357Z,5.30
2019-03-09T10:38:46.718Z,5.03
2019-03-09T10:41:16.140Z,5.78
2019-03-09T10:43:45.672Z,6.05
2019-03-09T10:46:15.034Z,5.58
2019-03-09T10:48:44.445Z,5.50
2019-03-09T10:51:13.865Z,7.08
2019-03-09T10:53:43.319Z,6.67
2019-03-09T10:56:12.705Z,7.30
2019-03-09T10:58:42.126Z,8.15
2019-03-09T11:01:11.540Z,8.80
2019-03-09T11:03:40.939Z,9.80
2019-03-09T11:06:10.321Z,9.25
2019-03-09T11:08:39.733Z,10.18
2019-03-09T11:11:09.097Z,10.67
2019-03-09T11:13:38.539Z,10.50
2019-03-09T11:16:07.917Z,11.05
2019-03-09T11:18:37.312Z,10.72
2019-03-09T11:21:06.713Z,10.13
2019-03-09T11:23:36.127Z,12.28
2019-03-09T11:26:05.499Z,10.90
2019-03-09T11:28:34.926Z,9.35
2019-03-09T11:31:04.309Z,9.65
2019-03-09T11:33:33.660Z,9.30
2019-03-09T11:36:03.047Z,8.93
2019-03-09T11:38:32.489Z,9.10
2019-03-09T11:41:01.851Z,10.30
2019-03-09T11:43:31.320Z,11.88
2019-03-09T11:46:00.749Z,10.20
2019-03-09T11:48:30.154Z,8.97
2019-03-09T11:50:59.612Z,8.70
2019-03-09T11:53:29.063Z,8.88
2019-03-09T11:55:58.615Z,9.55
2019-03-09T11:58:29.566Z,9.30
2019-03-09T12:00:59.002Z,8.20
2019-03-09T12:03:28.514Z,7.58
2019-03-09T12:05:58.036Z,8.03
2019-03-09T12:08:27.538Z,7.65
2019-03-09T12:10:57.050Z,7.62
2019-03-09T12:13:26.476Z,7.30
2019-03-09T12:15:55.950Z,6.83
2019-03-09T12:18:25.503Z,6.72
2019-03-09T12:20:54.950Z,7.40
2019-03-09T12:23:25.692Z,7.37
2019-03-09T12:25:55.152Z,7.00
2019-03-09T12:28:24.567Z,6.25
2019-03-09T12:30:53.988Z,6.58
2019-03-09T12:33:23.356Z,5.63
2019-03-09T12:35:52.765Z,5.17
2019-03-09T12:38:22.161Z,5.10
2019-03-09T12:40:51.578Z,4.97
2019-03-09T12:43:21.021Z,4.70
2019-03-09T12:45:50.732Z,3.75
2019-03-09T12:48:20.209Z,3.75
2019-03-09T12:50:49.643Z,4.50
2019-03-09T12:53:19.087Z,4.40
2019-03-09T12:55:48.581Z,4.08
2019-03-09T12:58:18.046Z,4.00
2019-03-09T13:00:47.450Z,3.80
2019-03-09T13:03:17.016Z,4.20
2019-03-09T13:05:46.822Z,4.22
2019-03-09T13:08:16.583Z,4.60
2019-03-09T13:10:46.061Z,6.00
2019-03-09T13:13:15.604Z,5.30
2019-03-09T13:15:45.420Z,4.37
2019-03-09T13:18:14.879Z,7.10
2019-03-09T13:20:44.214Z,5.53
2019-03-09T13:23:13.659Z,6.95
2019-03-09T13:25:43.081Z,7.12
2019-03-09T13:28:12.554Z,8.17
2019-03-09T13:30:41.974Z,6.22
2019-03-09T13:33:11.347Z,4.17
2019-03-09T13:35:40.735Z,3.57
2019-03-09T13:38:10.185Z,4.03
2019-03-09T13:40:39.664Z,3.95
2019-03-09T13:43:09.070Z,3.10
2019-03-09T13:45:38.474Z,3.92
2019-03-09T13:48:07.897Z,3.75
2019-03-09T13:50:37.296Z,3.70
2019-03-09T13:53:06.643Z,5.17
2019-03-09T13:55:36.097Z,4.05
2019-03-09T13:58:05.574Z,4.62
2019-03-09T14:00:40.478Z,4.65
2019-03-09T14:03:06.092Z,4.22
2019-03-09T14:05:35.526Z,4.87
2019-03-09T14:08:04.884Z,5.00
2019-03-09T14:10:34.580Z,4.30
2019-03-09T14:13:03.999Z,3.52
2019-03-09T14:15:33.531Z,3.98
2019-03-09T14:18:03.003Z,3.42
2019-03-09T14:20:32.519Z,3.67
2019-03-09T14:23:01.998Z,4.00
2019-03-09T14:25:31.816Z,4.03
2019-03-09T14:28:01.381Z,3.98
2019-03-09T14:30:30.987Z,3.98
2019-03-09T14:33:00.502Z,4.08
2019-03-09T14:35:29.932Z,4.25
2019-03-09T14:37:59.423Z,4.10
2019-03-09T14:40:28.882Z,5.65
2019-03-09T14:42:58.420Z,5.45
2019-03-09T14:45:58.265Z,6.33
2019-03-09T14:48:27.798Z,6.10
2019-03-09T14:50:57.320Z,6.10
2019-03-09T14:53:26.652Z,6.40
2019-03-09T14:55:56.081Z,5.85
2019-03-09T14:58:25.511Z,5.08
2019-03-09T15:00:54.977Z,5.37
2019-03-09T15:03:24.457Z,5.35
2019-03-09T15:05:54.049Z,4.90
2019-03-09T15:08:23.588Z,5.25
2019-03-09T15:10:53.179Z,5.33
2019-03-09T15:13:22.785Z,4.87
2019-03-09T15:15:52.695Z,4.70
2019-03-09T15:18:22.390Z,3.45
2019-03-09T15:20:51.990Z,3.08
2019-03-09T15:23:21.819Z,3.00
2019-03-09T15:25:51.273Z,3.62
2019-03-09T15:28:20.946Z,3.10
2019-03-09T15:30:50.696Z,4.10
2019-03-09T15:33:21.777Z,4.42
2019-03-09T15:35:51.485Z,2.20
2019-03-09T15:38:21.198Z,2.67
2019-03-09T15:40:50.785Z,1.70
2019-03-09T15:43:20.543Z,1.42
2019-03-09T15:45:50.285Z,1.30
2019-03-09T15:48:19.811Z,2.08
2019-03-09T15:50:49.279Z,1.15
2019-03-09T15:53:18.894Z,1.20
2019-03-09T15:55:48.810Z,0.85
2019-03-09T15:58:18.384Z,1.00
2019-03-09T16:00:47.996Z,0.95
2019-03-09T16:03:17.805Z,0.90
2019-03-09T16:05:47.544Z,1.32
2019-03-09T16:08:17.294Z,1.10
2019-03-09T16:10:46.842Z,1.10
2019-03-09T16:13:16.575Z,0.93
2019-03-09T16:15:46.191Z,1.40
2019-03-09T16:18:15.913Z,1.17
2019-03-09T16:20:45.673Z,1.20
2019-03-09T16:23:15.370Z,1.45
2019-03-09T16:25:44.893Z,1.13
2019-03-09T16:28:14.704Z,1.40
2019-03-09T16:30:44.401Z,1.40
2019-03-09T16:33:14.199Z,2.80
2019-03-09T16:35:44.072Z,2.55
2019-03-09T16:38:13.893Z,3.40
2019-03-09T16:40:43.592Z,2.60
2019-03-09T16:43:13.286Z,3.60
2019-03-09T16:45:43.397Z,3.20
2019-03-09T16:48:12.892Z,2.67
2019-03-09T16:50:42.681Z,2.65
2019-03-09T16:53:12.273Z,2.20
2019-03-09T16:55:41.996Z,2.60
2019-03-09T16:58:11.994Z,2.50
2019-03-09T17:00:41.927Z,2.47
2019-03-09T17:03:12.093Z,2.70
2019-03-09T17:05:42.066Z,4.20
2019-03-09T17:08:12.785Z,5.03
2019-03-09T17:10:42.775Z,4.90
2019-03-09T17:13:12.452Z,3.33
2019-03-09T17:15:45.488Z,3.00
2019-03-09T17:18:15.370Z,2.98
2019-03-09T17:20:45.860Z,4.90
2019-03-09T17:23:15.631Z,4.33
2019-03-09T17:25:48.913Z,3.75
2019-03-09T17:28:18.722Z,3.30
2019-03-09T17:30:48.314Z,3.45
2019-03-09T17:33:19.133Z,2.95
2019-03-09T17:35:49.114Z,3.33
2019-03-09T17:38:55.465Z,2.87
2019-03-09T17:41:25.095Z,2.08
2019-03-09T17:43:55.058Z,2.83
2019-03-09T17:46:24.612Z,3.55
2019-03-09T17:48:54.432Z,2.60
2019-03-09T17:51:24.006Z,2.20
2019-03-09T17:53:53.652Z,2.10
2019-03-09T17:56:23.295Z,2.20
2019-03-09T17:58:52.962Z,1.98
2019-03-09T18:01:22.822Z,2.62
2019-03-09T18:03:52.443Z,2.00
2019-03-09T18:06:22.246Z,1.92
2019-03-09T18:08:52.811Z,2.05
2019-03-09T18:11:22.399Z,2.00
2019-03-09T18:13:51.824Z,1.72
2019-03-09T18:16:21.688Z,1.60
2019-03-09T18:18:51.404Z,3.60
2019-03-09T18:21:21.014Z,3.08
2019-03-09T18:23:50.544Z,2.47
2019-03-09T18:26:20.087Z,1.70
2019-03-09T18:28:49.680Z,2.67
2019-03-09T18:31:19.694Z,2.60
2019-03-09T18:33:49.308Z,2.27
2019-03-09T18:36:18.925Z,2.35
2019-03-09T18:38:48.631Z,2.75
2019-03-09T18:41:18.445Z,2.42
2019-03-09T18:43:48.191Z,2.30
2019-03-09T18:46:17.724Z,2.10
2019-03-09T18:48:47.428Z,2.65
2019-03-09T18:51:17.021Z,2.90
2019-03-09T18:53:46.768Z,2.40
2019-03-09T18:56:16.481Z,4.58
2019-03-09T18:58:46.123Z,2.87
2019-03-09T19:01:15.743Z,2.50
2019-03-09T19:03:45.271Z,3.15
2019-03-09T19:06:15.082Z,4.08
2019-03-09T19:08:44.763Z,4.12
2019-03-09T19:11:14.368Z,3.12
2019-03-09T19:13:43.993Z,3.67
2019-03-09T19:16:13.558Z,3.00
2019-03-09T19:18:43.170Z,3.27
2019-03-09T19:21:13.585Z,3.08
2019-03-09T19:23:43.333Z,3.25
2019-03-09T19:26:12.890Z,3.60
2019-03-09T19:28:42.422Z,2.92
2019-03-09T19:31:11.977Z,2.83
2019-03-09T19:33:42.175Z,2.40
2019-03-09T19:36:11.842Z,2.62
2019-03-09T19:38:41.756Z,2.80
2019-03-09T19:41:11.736Z,2.87
2019-03-09T19:43:41.878Z,2.40
2019-03-09T19:46:11.639Z,2.30
2019-03-09T19:48:41.450Z,3.27
2019-03-09T19:51:11.076Z,2.70
2019-03-09T19:53:40.597Z,3.55
2019-03-09T19:56:10.254Z,2.98
2019-03-09T19:58:39.939Z,3.20
2019-03-09T20:01:09.643Z,3.20
2019-03-09T20:03:39.616Z,2.87
2019-03-09T20:06:09.341Z,3.10
2019-03-09T20:08:39.146Z,3.50
2019-03-09T20:11:08.704Z,3.37
2019-03-09T20:13:38.271Z,3.08
2019-03-09T20:16:07.821Z,3.75
2019-03-09T20:18:37.411Z,3.03
2019-03-09T20:21:07.056Z,3.40
2019-03-09T20:23:36.633Z,3.13
2019-03-09T20:26:06.202Z,3.67
2019-03-09T20:28:35.734Z,2.95
2019-03-09T20:31:05.324Z,2.50
2019-03-09T20:33:34.979Z,3.10
2019-03-09T20:36:04.619Z,2.80
2019-03-09T20:38:34.163Z,3.10
2019-03-09T20:41:03.662Z,3.05
2019-03-09T20:43:33.205Z,2.95
2019-03-09T20:46:02.747Z,3.10
2019-03-09T20:48:32.337Z,2.98
2019-03-09T20:51:01.892Z,3.45
2019-03-09T20:53:31.502Z,3.30
2019-03-09T20:56:00.961Z,3.10
2019-03-09T20:58:30.594Z,3.50
2019-03-09T21:01:00.079Z,3.70
2019-03-09T21:03:29.662Z,3.52
2019-03-09T21:05:59.425Z,3.08
2019-03-09T21:08:28.970Z,3.25
2019-03-09T21:11:03.916Z,3.05
2019-03-09T21:13:29.854Z,3.15
2019-03-09T21:15:59.482Z,2.77
2019-03-09T21:18:29.083Z,2.80
2019-03-09T21:20:58.617Z,3.10
2019-03-09T21:23:28.089Z,3.45
2019-03-09T21:25:58.034Z,2.90
2019-03-09T21:28:27.817Z,3.12
2019-03-09T21:30:57.354Z,3.02
2019-03-09T21:33:27.110Z,3.42
2019-03-09T21:35:56.642Z,3.12
2019-03-09T21:38:26.302Z,2.90
2019-03-09T21:40:56.001Z,3.33
2019-03-09T21:43:25.550Z,3.10
2019-03-09T21:45:55.059Z,3.35
2019-03-09T21:48:24.561Z,3.80
2019-03-09T21:50:54.153Z,2.90
2019-03-09T21:53:23.847Z,3.30
2019-03-09T21:55:53.350Z,3.37
2019-03-09T21:58:22.826Z,3.27
2019-03-09T22:00:52.375Z,3.80
2019-03-09T22:03:21.816Z,3.40
2019-03-09T22:05:51.273Z,3.00
2019-03-09T22:08:20.683Z,3.37
2019-03-09T22:10:50.119Z,2.77
2019-03-09T22:13:19.662Z,3.55
2019-03-09T22:15:49.232Z,3.50
2019-03-09T22:18:18.708Z,3.10
2019-03-09T22:20:48.238Z,3.08
2019-03-09T22:23:17.655Z,3.27
2019-03-09T22:25:47.320Z,3.40
2019-03-09T22:28:17.008Z,3.37
2019-03-09T22:30:46.538Z,3.47
2019-03-09T22:33:15.927Z,3.62
2019-03-09T22:35:45.344Z,3.37
2019-03-09T22:38:15.235Z,3.95
2019-03-09T22:40:44.804Z,4.00
2019-03-09T22:43:14.335Z,3.62
2019-03-09T22:45:43.819Z,4.45
2019-03-09T22:48:13.305Z,3.80
2019-03-09T22:50:42.763Z,3.58
2019-03-09T22:53:12.212Z,3.25
2019-03-09T22:55:41.688Z,3.80
2019-03-09T22:58:11.238Z,3.70
2019-03-09T23:00:40.960Z,3.60
2019-03-09T23:03:10.831Z,3.47
2019-03-09T23:05:40.478Z,3.50
2019-03-09T23:08:09.957Z,4.17
2019-03-09T23:10:39.392Z,3.58
2019-03-09T23:13:08.918Z,3.30
2019-03-09T23:15:38.603Z,4.22
2019-03-09T23:18:08.358Z,4.00
2019-03-09T23:20:37.880Z,3.35
2019-03-09T23:23:07.471Z,3.20
2019-03-09T23:25:36.917Z,3.27
2019-03-09T23:28:06.457Z,3.50
2019-03-09T23:30:36.052Z,3.98
2019-03-09T23:33:05.596Z,3.40
2019-03-09T23:35:35.028Z,3.72
2019-03-09T23:38:04.669Z,3.60
2019-03-09T23:40:34.327Z,3.22
2019-03-09T23:43:03.921Z,3.72
2019-03-09T23:45:33.483Z,3.52
2019-03-09T23:48:03.229Z,3.52
2019-03-09T23:50:33.347Z,3.52
2019-03-09T23:53:03.151Z,3.50
2019-03-09T23:55:32.627Z,3.35
2019-03-09T23:58:02.377Z,3.62
